Time;durP1;ratioP1;P1;durP2;ratioP2;P2;SDS_P1;SDS_P2;PMS_P1;PMS_P2;Temp;Humidity;BMP_temperature;BMP_pressure;BME280_temperature;BME280_humidity;BME280_pressure;Samples;Min_cycle;Max_cycle;Signal;HPM_P1;HPM_P2
2022/10/07 00:00:56;;;;;;;0.87;0.87;;;15.20;99.90;;;;;;5042201;28;20200;-66
2022/10/07 00:03:26;;;;;;;0.77;0.77;;;15.20;99.90;;;;;;5043631;28;20200;-66
2022/10/07 00:06:07;;;;;;;0.80;0.80;;;15.20;99.90;;;;;;5040258;28;20712;-66
2022/10/07 00:08:36;;;;;;;0.80;0.80;;;15.20;99.90;;;;;;5043853;28;20231;-66
2022/10/07 00:11:05;;;;;;;0.73;0.73;;;15.20;99.90;;;;;;5043863;28;20206;-66
2022/10/07 00:13:32;;;;;;;0.83;0.83;;;15.20;99.90;;;;;;5044273;28;20654;-65
2022/10/07 00:16:05;;;;;;;2.00;0.97;;;15.20;99.90;;;;;;5042803;28;20224;-65
2022/10/07 00:18:34;;;;;;;0.70;0.70;;;15.20;99.90;;;;;;5043402;28;20295;-66
2022/10/07 00:21:03;;;;;;;0.70;0.70;;;15.20;99.90;;;;;;5041163;28;20204;-66
2022/10/07 00:23:31;;;;;;;0.87;0.83;;;15.20;99.90;;;;;;5043943;28;20230;-66
2022/10/07 00:26:00;;;;;;;1.10;1.00;;;15.20;99.90;;;;;;5042214;28;20323;-65
2022/10/07 00:28:28;;;;;;;0.90;0.90;;;15.30;99.90;;;;;;5042815;28;20196;-66
2022/10/07 00:30:57;;;;;;;1.00;1.00;;;15.20;99.90;;;;;;5039541;28;20224;-65
2022/10/07 00:33:24;;;;;;;1.03;0.97;;;15.20;99.90;;;;;;5041554;28;20209;-66
2022/10/07 00:35:52;;;;;;;1.20;1.10;;;15.10;99.90;;;;;;5041225;28;20226;-66
2022/10/07 00:38:19;;;;;;;1.00;1.00;;;15.10;99.90;;;;;;5043524;28;20199;-66
2022/10/07 00:40:46;;;;;;;0.95;0.95;;;15.00;99.90;;;;;;5042032;28;20231;-65
2022/10/07 00:43:24;;;;;;;1.07;1.07;;;15.00;99.90;;;;;;5039265;28;20204;-66
2022/10/07 00:45:52;;;;;;;1.00;1.00;;;14.90;99.90;;;;;;5045892;28;20313;-66
2022/10/07 00:48:24;;;;;;;1.43;1.33;;;14.90;99.90;;;;;;5039622;28;20205;-66
2022/10/07 00:50:56;;;;;;;1.20;1.10;;;14.90;99.90;;;;;;5039482;28;20212;-65
2022/10/07 00:53:25;;;;;;;1.13;1.03;;;14.90;99.90;;;;;;5039550;28;20223;-66
2022/10/07 00:55:53;;;;;;;1.10;1.00;;;14.90;99.90;;;;;;5047396;28;20219;-66
2022/10/07 00:58:20;;;;;;;1.30;1.20;;;14.90;99.90;;;;;;5039813;28;20211;-67
2022/10/07 01:00:47;;;;;;;0.93;0.93;;;14.90;99.90;;;;;;5040670;28;20204;-66
2022/10/07 01:03:14;;;;;;;1.40;1.30;;;14.80;99.90;;;;;;5044880;28;20207;-66
2022/10/07 01:05:42;;;;;;;1.77;1.27;;;14.90;99.90;;;;;;5039740;28;20224;-66
2022/10/07 01:08:11;;;;;;;0.87;0.87;;;14.90;99.90;;;;;;5047034;28;20211;-66
2022/10/07 01:10:49;;;;;;;1.03;1.00;;;14.80;99.90;;;;;;5038962;28;20220;-66
2022/10/07 01:13:25;;;;;;;0.93;0.93;;;14.80;99.90;;;;;;5037537;28;20289;-66
2022/10/07 01:15:58;;;;;;;0.97;0.90;;;14.70;99.90;;;;;;5039778;28;20224;-65
2022/10/07 01:18:31;;;;;;;1.00;1.00;;;14.60;99.90;;;;;;5043022;28;20204;-65
2022/10/07 01:21:03;;;;;;;0.87;0.87;;;14.60;99.90;;;;;;5042281;28;20200;-66
2022/10/07 01:24:04;;;;;;;0.80;0.80;;;14.60;99.90;;;;;;5046386;28;20215;-66
2022/10/07 01:26:57;;;;;;;1.02;1.02;;;14.50;99.90;;;;;;5051462;28;20223;-66
2022/10/07 01:29:30;;;;;;;1.20;1.10;;;14.50;99.90;;;;;;5042070;28;20311;-66
2022/10/07 01:32:03;;;;;;;0.80;0.80;;;14.50;99.90;;;;;;5048413;28;20708;-66
2022/10/07 01:34:33;;;;;;;3.57;1.10;;;14.40;99.90;;;;;;5042575;28;20258;-66
2022/10/07 01:37:02;;;;;;;0.80;0.80;;;14.50;99.90;;;;;;5044999;28;20221;-65
2022/10/07 01:39:34;;;;;;;0.70;0.70;;;14.40;99.90;;;;;;5048694;28;20270;-66
2022/10/07 01:42:02;;;;;;;1.10;1.10;;;14.40;99.90;;;;;;5059215;28;20277;-66
2022/10/07 01:44:30;;;;;;;0.90;0.90;;;14.40;99.90;;;;;;5054016;28;20320;-65
2022/10/07 01:46:58;;;;;;;0.80;0.80;;;14.30;99.90;;;;;;5045526;28;20224;-66
2022/10/07 01:49:25;;;;;;;0.83;0.83;;;14.40;99.90;;;;;;5042669;28;20201;-66
2022/10/07 01:52:07;;;;;;;0.90;0.90;;;14.40;99.90;;;;;;5046765;28;20200;-66
2022/10/07 01:54:46;;;;;;;0.80;0.80;;;14.50;99.90;;;;;;5049982;28;20268;-66
2022/10/07 01:57:40;;;;;;;1.20;1.10;;;14.50;99.90;;;;;;5041378;28;20215;-66
2022/10/07 02:00:10;;;;;;;0.80;0.80;;;14.50;99.90;;;;;;5019648;28;20208;-66
2022/10/07 02:02:59;;;;;;;1.10;0.97;;;14.50;99.90;;;;;;5023695;28;20200;-66
2022/10/07 02:05:37;;;;;;;0.80;0.80;;;14.50;99.90;;;;;;5023361;28;20587;-65
2022/10/07 02:08:19;;;;;;;0.80;0.80;;;14.60;99.90;;;;;;5019993;28;20204;-66
2022/10/07 02:11:00;;;;;;;0.80;0.80;;;14.60;99.90;;;;;;5018904;28;20585;-66
2022/10/07 02:13:35;;;;;;;0.80;0.80;;;14.70;99.90;;;;;;5019577;28;20209;-66
2022/10/07 02:16:08;;;;;;;1.03;0.87;;;14.70;99.90;;;;;;5027475;28;20742;-65
2022/10/07 02:18:36;;;;;;;0.80;0.80;;;14.70;99.90;;;;;;5030732;28;20200;-66
2022/10/07 02:21:06;;;;;;;1.00;0.90;;;14.80;99.90;;;;;;5051571;28;20678;-66
2022/10/07 02:23:36;;;;;;;1.00;1.00;;;14.80;99.90;;;;;;5042553;28;20207;-66
2022/10/07 02:26:05;;;;;;;0.80;0.80;;;14.80;99.90;;;;;;5044585;28;20238;-65
2022/10/07 02:28:36;;;;;;;1.10;1.00;;;14.90;99.90;;;;;;5044889;28;20201;-66
2022/10/07 02:31:05;;;;;;;1.00;1.00;;;14.90;99.90;;;;;;5044227;28;20218;-66
2022/10/07 02:33:33;;;;;;;1.30;1.20;;;15.00;99.90;;;;;;5045585;28;20201;-65
2022/10/07 02:36:04;;;;;;;1.40;1.30;;;14.90;99.90;;;;;;5043872;28;20350;-65
2022/10/07 02:38:31;;;;;;;1.40;1.30;;;14.80;99.90;;;;;;5050120;28;20200;-66
2022/10/07 02:41:05;;;;;;;1.07;1.07;;;14.70;99.90;;;;;;5045253;28;20233;-65
2022/10/07 02:43:40;;;;;;;1.13;1.00;;;14.80;99.90;;;;;;5046404;28;20204;-65
2022/10/07 02:46:11;;;;;;;1.00;1.00;;;14.80;99.90;;;;;;5037368;28;20861;-65
2022/10/07 02:48:43;;;;;;;1.03;1.03;;;14.90;99.90;;;;;;5048073;28;20559;-66
2022/10/07 02:51:17;;;;;;;1.20;1.17;;;14.80;99.90;;;;;;5040876;28;20217;-65
2022/10/07 02:53:45;;;;;;;1.17;1.10;;;14.80;99.90;;;;;;5049130;28;20203;-67
2022/10/07 02:56:13;;;;;;;1.13;1.10;;;14.90;99.90;;;;;;5041150;28;20579;-65
2022/10/07 02:58:44;;;;;;;1.60;1.50;;;14.70;99.90;;;;;;5041091;28;20200;-67
2022/10/07 03:01:16;;;;;;;1.27;1.20;;;14.60;99.90;;;;;;5034697;28;20205;-66
2022/10/07 03:03:43;;;;;;;1.10;1.00;;;14.50;99.90;;;;;;5041153;28;20209;-66
2022/10/07 03:06:12;;;;;;;1.33;1.23;;;14.40;99.90;;;;;;5046158;28;20231;-66
2022/10/07 03:08:39;;;;;;;1.20;1.20;;;14.40;99.90;;;;;;5040454;28;20211;-66
2022/10/07 03:11:06;;;;;;;1.83;1.30;;;14.20;99.90;;;;;;5048602;28;20584;-65
2022/10/07 03:13:34;;;;;;;1.00;1.00;;;14.00;99.90;;;;;;5041085;28;20200;-65
2022/10/07 03:16:02;;;;;;;1.03;1.03;;;14.00;99.90;;;;;;5043462;28;20228;-66
2022/10/07 03:18:29;;;;;;;1.13;1.13;;;14.10;99.90;;;;;;5043713;28;20207;-67
2022/10/07 03:20:59;;;;;;;1.13;1.08;;;14.00;99.90;;;;;;5041927;28;20287;-65
2022/10/07 03:23:27;;;;;;;1.73;1.27;;;13.90;99.90;;;;;;5045218;28;20208;-65
2022/10/07 03:25:57;;;;;;;1.13;1.13;;;13.90;99.90;;;;;;5042175;28;20256;-65
2022/10/07 03:28:25;;;;;;;1.23;1.20;;;14.00;99.90;;;;;;5046761;28;20200;-66
2022/10/07 03:30:52;;;;;;;1.10;1.10;;;14.00;99.90;;;;;;5042212;28;20232;-66
2022/10/07 03:33:25;;;;;;;1.37;1.27;;;14.10;99.90;;;;;;5044093;28;20311;-66
2022/10/07 03:35:52;;;;;;;1.53;1.20;;;13.90;99.90;;;;;;5041795;28;20316;-66
2022/10/07 03:38:20;;;;;;;1.10;1.10;;;14.00;99.90;;;;;;5043800;28;20290;-66
2022/10/07 03:40:48;;;;;;;1.30;1.20;;;14.10;99.90;;;;;;5036400;28;20201;-66
2022/10/07 03:43:15;;;;;;;2.40;1.30;;;14.10;99.90;;;;;;5045012;28;20212;-65
2022/10/07 03:45:49;;;;;;;1.27;1.17;;;14.20;99.90;;;;;;5049582;28;20228;-66
2022/10/07 03:48:15;;;;;;;1.20;1.10;;;14.30;99.90;;;;;;5037133;28;20202;-66
2022/10/07 03:50:48;;;;;;;0.97;0.97;;;14.30;99.90;;;;;;5053327;28;20287;-66
2022/10/07 03:53:15;;;;;;;1.20;1.10;;;14.40;99.90;;;;;;5053113;28;20692;-66
2022/10/07 03:55:42;;;;;;;1.10;1.10;;;14.40;99.90;;;;;;5057422;28;20246;-66
2022/10/07 03:58:08;;;;;;;0.93;0.93;;;14.40;99.90;;;;;;5045000;28;20268;-65
2022/10/07 04:00:37;;;;;;;1.33;1.23;;;14.40;99.90;;;;;;5060068;28;20207;-65
2022/10/07 04:03:04;;;;;;;0.90;0.90;;;14.50;99.90;;;;;;5047409;28;20203;-65
2022/10/07 04:05:31;;;;;;;1.20;1.10;;;14.50;99.90;;;;;;5052701;28;20311;-66
2022/10/07 04:07:59;;;;;;;1.00;1.00;;;14.50;99.90;;;;;;5043923;28;20291;-66
2022/10/07 04:10:26;;;;;;;1.30;1.20;;;14.50;99.90;;;;;;5048078;28;20226;-66
2022/10/07 04:12:53;;;;;;;1.40;1.30;;;14.50;99.90;;;;;;5044274;28;20638;-66
2022/10/07 04:15:20;;;;;;;1.20;1.17;;;14.50;99.90;;;;;;5041140;28;20287;-64
2022/10/07 04:17:48;;;;;;;1.03;1.03;;;14.30;99.90;;;;;;5049018;28;20762;-66
2022/10/07 04:20:16;;;;;;;1.23;1.23;;;14.30;99.90;;;;;;5043923;28;20196;-67
2022/10/07 04:22:43;;;;;;;1.23;1.13;;;14.30;99.90;;;;;;5049744;28;20228;-67
2022/10/07 04:28:15;;;;;;;1.13;1.10;;;14.30;99.90;;;;;;5047022;28;20211;-66
2022/10/07 04:30:53;;;;;;;1.27;1.17;;;14.30;99.90;;;;;;5045120;28;20224;-65
2022/10/07 04:33:28;;;;;;;1.17;1.03;;;14.30;99.90;;;;;;5038218;28;20200;-65
2022/10/07 04:36:06;;;;;;;1.40;1.30;;;14.20;99.90;;;;;;5040225;28;20652;-65
2022/10/07 04:38:45;;;;;;;1.50;1.40;;;14.10;99.90;;;;;;5040755;28;20207;-66
2022/10/07 04:41:30;;;;;;;1.23;1.13;;;14.10;99.90;;;;;;5038730;28;20214;-67
2022/10/07 04:44:12;;;;;;;1.00;1.00;;;14.10;99.90;;;;;;5048062;28;20230;-65
2022/10/07 04:46:52;;;;;;;1.30;1.20;;;14.10;99.90;;;;;;5039376;28;20231;-66
2022/10/07 04:52:08;;;;;;;1.27;1.10;;;14.10;99.90;;;;;;5047611;28;20228;-65
2022/10/07 04:54:38;;;;;;;1.97;1.33;;;14.10;99.90;;;;;;5058064;28;20291;-66
2022/10/07 05:00:01;;;;;;;1.40;1.30;;;14.00;99.90;;;;;;5056162;28;20209;-66
2022/10/07 05:02:40;;;;;;;1.35;1.25;;;13.90;99.90;;;;;;5055966;28;20642;-66
2022/10/07 05:05:13;;;;;;;1.60;1.50;;;13.90;99.90;;;;;;5036294;28;20195;-65
2022/10/07 05:07:50;;;;;;;1.40;1.30;;;13.80;99.90;;;;;;5045557;28;20197;-66
2022/10/07 05:10:24;;;;;;;1.30;1.20;;;13.90;99.90;;;;;;5032927;28;20200;-65
2022/10/07 05:12:58;;;;;;;1.80;1.40;;;14.00;99.90;;;;;;5037174;28;20574;-66
2022/10/07 05:15:29;;;;;;;1.20;1.10;;;14.00;99.90;;;;;;5049731;28;20685;-65
2022/10/07 05:18:02;;;;;;;1.40;1.30;;;13.90;99.90;;;;;;5045114;28;20208;-66
2022/10/07 05:20:30;;;;;;;1.27;1.17;;;13.90;99.90;;;;;;5051142;28;20208;-67
2022/10/07 05:23:04;;;;;;;1.40;1.40;;;13.90;99.90;;;;;;5048059;28;20588;-66
2022/10/07 05:25:40;;;;;;;1.50;1.40;;;13.80;99.90;;;;;;5049557;28;20293;-65
2022/10/07 05:28:10;;;;;;;1.40;1.30;;;13.80;99.90;;;;;;5042204;28;20211;-67
2022/10/07 05:30:49;;;;;;;1.53;1.43;;;13.80;99.90;;;;;;5047711;28;20219;-67
2022/10/07 05:33:30;;;;;;;1.23;1.20;;;13.80;99.90;;;;;;5040080;28;20714;-69
2022/10/07 05:35:59;;;;;;;1.10;1.10;;;13.80;99.90;;;;;;5045301;28;20227;-67
2022/10/07 05:38:35;;;;;;;1.47;1.30;;;13.80;99.90;;;;;;5041591;28;20234;-67
2022/10/07 05:41:06;;;;;;;1.30;1.20;;;13.80;99.90;;;;;;5045015;28;20197;-67
2022/10/07 05:43:42;;;;;;;1.37;1.27;;;13.70;99.90;;;;;;5043567;28;20287;-64
2022/10/07 05:46:15;;;;;;;1.50;1.40;;;13.70;99.90;;;;;;5057035;28;20224;-66
2022/10/07 05:48:46;;;;;;;1.70;1.40;;;13.70;99.90;;;;;;5054990;28;20224;-64
2022/10/07 05:51:25;;;;;;;1.10;1.10;;;13.70;99.90;;;;;;5036823;28;20288;-65
2022/10/07 05:53:53;;;;;;;1.60;1.40;;;13.80;99.90;;;;;;5043391;28;20295;-65
2022/10/07 05:56:21;;;;;;;1.20;1.20;;;13.80;99.90;;;;;;5034311;28;20304;-66
2022/10/07 05:58:49;;;;;;;2.97;1.47;;;13.80;99.90;;;;;;5035970;28;20205;-66
2022/10/07 06:01:18;;;;;;;1.10;1.10;;;13.80;99.90;;;;;;5042494;28;20654;-67
2022/10/07 06:03:50;;;;;;;1.50;1.40;;;13.80;99.90;;;;;;5039710;28;20205;-64
2022/10/07 06:06:17;;;;;;;2.80;1.40;;;13.80;99.90;;;;;;5038388;28;20224;-67
2022/10/07 06:08:45;;;;;;;1.53;1.40;;;13.80;99.90;;;;;;5043314;28;20295;-65
2022/10/07 06:14:00;;;;;;;1.30;1.20;;;13.80;99.90;;;;;;5036856;28;20204;-67
2022/10/07 06:16:30;;;;;;;1.90;1.80;;;13.90;99.90;;;;;;5046588;28;20220;-66
2022/10/07 06:18:58;;;;;;;1.30;1.30;;;13.80;99.90;;;;;;5045725;28;20284;-64
2022/10/07 06:21:27;;;;;;;1.17;1.17;;;13.90;99.90;;;;;;5048930;28;20250;-65
2022/10/07 06:23:55;;;;;;;1.30;1.20;;;14.00;99.90;;;;;;5046686;28;20200;-65
2022/10/07 06:26:22;;;;;;;1.57;1.40;;;14.20;99.90;;;;;;5052588;28;20646;-66
2022/10/07 06:28:49;;;;;;;1.10;1.10;;;14.30;99.90;;;;;;5046669;28;20712;-65
2022/10/07 06:31:21;;;;;;;1.13;1.10;;;14.40;99.90;;;;;;5045911;28;20254;-67
2022/10/07 06:33:49;;;;;;;1.60;1.20;;;14.50;99.90;;;;;;5035083;28;20292;-67
2022/10/07 06:36:15;;;;;;;1.43;1.33;;;14.60;99.90;;;;;;5045347;28;20224;-67
2022/10/07 06:38:44;;;;;;;1.23;1.20;;;14.70;99.90;;;;;;5034468;28;20200;-67
2022/10/07 06:41:11;;;;;;;1.40;1.20;;;14.80;99.90;;;;;;5035088;28;20223;-66
2022/10/07 06:43:38;;;;;;;1.37;1.27;;;14.90;99.90;;;;;;5033469;28;20203;-66
2022/10/07 06:46:06;;;;;;;1.70;1.33;;;14.90;99.90;;;;;;5036234;28;20239;-66
2022/10/07 06:48:35;;;;;;;1.20;1.10;;;15.00;99.90;;;;;;5033660;28;20201;-66
2022/10/07 06:51:03;;;;;;;1.13;1.10;;;15.10;99.90;;;;;;5043322;28;20231;-65
2022/10/07 06:53:30;;;;;;;1.37;1.23;;;15.20;99.90;;;;;;5034726;28;20299;-67
2022/10/07 06:56:00;;;;;;;1.33;1.20;;;15.20;99.90;;;;;;5042838;28;20224;-67
2022/10/07 06:58:27;;;;;;;1.20;1.10;;;15.20;99.90;;;;;;5041496;28;20197;-66
2022/10/07 07:00:55;;;;;;;2.50;1.60;;;15.20;99.90;;;;;;5037540;28;20205;-67
2022/10/07 07:03:23;;;;;;;1.27;1.17;;;15.30;99.90;;;;;;5041669;28;20232;-66
2022/10/07 07:05:51;;;;;;;1.27;1.20;;;15.40;99.90;;;;;;5040787;28;20303;-66
2022/10/07 07:08:19;;;;;;;1.37;1.27;;;15.40;99.90;;;;;;5032508;28;20205;-67
2022/10/07 07:10:46;;;;;;;1.00;1.00;;;15.50;99.90;;;;;;5041658;28;20230;-66
2022/10/07 07:13:14;;;;;;;1.52;1.42;;;15.40;99.90;;;;;;5031165;28;20287;-65
2022/10/07 07:15:41;;;;;;;1.40;1.30;;;15.50;99.90;;;;;;5030227;28;20277;-67
2022/10/07 07:18:10;;;;;;;1.57;1.20;;;15.60;99.90;;;;;;5033871;28;20207;-66
2022/10/07 07:20:38;;;;;;;1.17;1.07;;;15.60;99.90;;;;;;5031833;28;20200;-65
2022/10/07 07:23:09;;;;;;;1.30;1.20;;;15.60;99.90;;;;;;5039659;28;20276;-66
2022/10/07 07:25:38;;;;;;;1.17;1.07;;;15.70;99.90;;;;;;5037494;28;20799;-68
2022/10/07 07:28:06;;;;;;;1.50;1.40;;;15.80;99.90;;;;;;5039291;28;20226;-66
2022/10/07 07:30:35;;;;;;;1.20;1.20;;;16.00;99.90;;;;;;5045544;28;20200;-67
2022/10/07 07:33:03;;;;;;;1.80;1.45;;;15.90;99.90;;;;;;5045520;28;20236;-66
2022/10/07 07:35:31;;;;;;;1.30;1.20;;;16.00;99.90;;;;;;5043996;28;20232;-66
2022/10/07 07:37:58;;;;;;;1.33;1.23;;;16.00;99.90;;;;;;5044026;28;20253;-66
2022/10/07 07:40:27;;;;;;;1.43;1.33;;;16.10;99.90;;;;;;5044682;28;20204;-66
2022/10/07 07:42:54;;;;;;;1.23;1.10;;;16.20;99.90;;;;;;5041085;28;20199;-66
2022/10/07 07:45:23;;;;;;;1.53;1.00;;;16.20;99.90;;;;;;5037247;28;20200;-67
2022/10/07 07:47:50;;;;;;;0.90;0.90;;;16.20;99.90;;;;;;5041284;28;20243;-66
2022/10/07 07:50:19;;;;;;;1.10;1.10;;;16.20;99.90;;;;;;5032574;28;20200;-65
2022/10/07 07:52:46;;;;;;;1.30;1.20;;;16.30;99.90;;;;;;5043471;28;20226;-67
2022/10/07 07:55:13;;;;;;;1.40;1.30;;;16.30;99.90;;;;;;5044087;28;20312;-67
2022/10/07 07:57:42;;;;;;;1.47;1.37;;;16.30;99.90;;;;;;5036355;28;20228;-67
2022/10/07 08:00:11;;;;;;;1.20;1.20;;;16.40;99.90;;;;;;5032252;28;20207;-67
2022/10/07 08:02:38;;;;;;;1.40;1.30;;;16.50;99.90;;;;;;5035778;28;20196;-67
2022/10/07 08:05:06;;;;;;;1.93;1.60;;;16.60;99.90;;;;;;5033885;28;20209;-64
2022/10/07 08:07:34;;;;;;;1.53;1.40;;;16.70;99.90;;;;;;5038393;28;20204;-66
2022/10/07 08:10:01;;;;;;;1.50;1.40;;;16.60;99.90;;;;;;5034487;28;20200;-67
2022/10/07 08:12:27;;;;;;;2.33;1.30;;;16.70;99.90;;;;;;5039239;28;20589;-67
2022/10/07 08:14:56;;;;;;;1.40;1.30;;;16.70;99.90;;;;;;5040949;28;20204;-68
2022/10/07 08:17:23;;;;;;;1.65;1.52;;;16.90;99.90;;;;;;5043266;28;20228;-68
2022/10/07 08:19:50;;;;;;;2.33;1.30;;;16.90;99.90;;;;;;5043021;28;20210;-67
2022/10/07 08:22:17;;;;;;;1.40;1.30;;;16.80;99.90;;;;;;5024537;28;20203;-67
2022/10/07 08:24:44;;;;;;;1.50;1.40;;;16.90;99.90;;;;;;5043782;28;20554;-67
2022/10/07 08:27:12;;;;;;;1.30;1.20;;;17.00;99.90;;;;;;5043095;28;20318;-68
2022/10/07 08:29:38;;;;;;;1.40;1.30;;;17.00;99.90;;;;;;5046651;28;20612;-66
2022/10/07 08:32:06;;;;;;;1.60;1.50;;;17.10;99.90;;;;;;5045347;28;20263;-65
2022/10/07 08:34:33;;;;;;;1.47;1.37;;;17.30;99.90;;;;;;5049676;28;20283;-67
2022/10/07 08:37:00;;;;;;;1.60;1.50;;;17.40;99.90;;;;;;5045869;28;20300;-66
2022/10/07 08:39:28;;;;;;;1.40;1.30;;;17.40;99.90;;;;;;5047980;28;20292;-67
2022/10/07 08:42:07;;;;;;;1.70;1.60;;;17.60;99.90;;;;;;5037890;28;20204;-65
2022/10/07 08:44:39;;;;;;;1.57;1.47;;;17.70;99.90;;;;;;5044542;28;20216;-65
2022/10/07 08:47:16;;;;;;;1.13;1.13;;;17.80;99.90;;;;;;5037511;28;20326;-65
2022/10/07 08:49:53;;;;;;;1.60;1.50;;;17.90;99.90;;;;;;5030638;28;20207;-66
2022/10/07 08:52:32;;;;;;;1.57;1.47;;;18.00;99.90;;;;;;5034748;28;20216;-65
2022/10/07 08:55:00;;;;;;;1.80;1.70;;;18.00;99.90;;;;;;5036232;28;20209;-66
2022/10/07 08:57:45;;;;;;;1.93;1.53;;;18.00;99.90;;;;;;5035511;28;20252;-65
2022/10/07 09:00:16;;;;;;;1.63;1.53;;;18.00;99.90;;;;;;5037156;28;20206;-65
2022/10/07 09:02:58;;;;;;;1.83;1.73;;;17.80;99.90;;;;;;5038752;28;20203;-66
2022/10/07 09:05:31;;;;;;;1.70;1.60;;;17.90;99.90;;;;;;5041959;28;20213;-65
2022/10/07 09:08:00;;;;;;;2.13;1.80;;;18.00;99.90;;;;;;5040662;28;20284;-67
2022/10/07 09:10:32;;;;;;;1.98;1.77;;;17.90;99.90;;;;;;5036847;28;20715;-67
2022/10/07 09:13:03;;;;;;;1.90;1.50;;;17.90;99.90;;;;;;5040448;28;20216;-65
2022/10/07 09:15:39;;;;;;;1.90;1.80;;;18.10;99.90;;;;;;5035432;28;20224;-66
2022/10/07 09:18:16;;;;;;;1.80;1.70;;;18.30;99.90;;;;;;5041778;28;20614;-66
2022/10/07 09:20:46;;;;;;;1.80;1.70;;;18.30;99.90;;;;;;5037947;28;20223;-67
2022/10/07 09:23:15;;;;;;;1.60;1.50;;;18.40;99.90;;;;;;5042025;28;20192;-67
2022/10/07 09:25:43;;;;;;;1.70;1.60;;;18.60;99.90;;;;;;5046173;28;20306;-65
2022/10/07 09:28:13;;;;;;;1.88;1.77;;;18.60;99.90;;;;;;5046618;28;20295;-66
2022/10/07 09:30:41;;;;;;;1.67;1.57;;;18.50;99.90;;;;;;5042211;28;20726;-66
2022/10/07 09:33:15;;;;;;;1.60;1.50;;;18.40;99.90;;;;;;5036799;28;20212;-66
2022/10/07 09:35:43;;;;;;;1.77;1.67;;;18.50;99.90;;;;;;5035528;28;20271;-67
2022/10/07 09:38:10;;;;;;;2.53;1.67;;;18.50;99.90;;;;;;5037516;28;20679;-66
2022/10/07 09:41:13;;;;;;;1.40;1.30;;;18.70;99.90;;;;;;5026315;28;20264;-67
2022/10/07 09:43:31;;;;;;;1.50;1.40;;;18.90;99.90;;;;;;5029459;28;20207;-67
2022/10/07 09:46:00;;;;;;;1.50;1.40;;;19.10;99.90;;;;;;5027740;28;20229;-67
2022/10/07 09:48:33;;;;;;;1.70;1.60;;;19.00;99.90;;;;;;5027265;28;20303;-66
2022/10/07 09:51:14;;;;;;;1.60;1.50;;;19.20;99.90;;;;;;5029967;28;20205;-66
2022/10/07 09:53:57;;;;;;;1.47;1.37;;;19.40;99.90;;;;;;5024320;28;20233;-67
2022/10/07 09:56:35;;;;;;;1.40;1.30;;;19.60;99.90;;;;;;5017676;28;20618;-66
2022/10/07 09:59:19;;;;;;;1.60;1.50;;;19.60;99.90;;;;;;5025913;28;20235;-67
2022/10/07 10:01:52;;;;;;;1.47;1.37;;;19.40;99.90;;;;;;5030416;28;20207;-66
2022/10/07 10:04:28;;;;;;;1.50;1.40;;;19.30;99.90;;;;;;5030412;28;20211;-67
2022/10/07 10:06:57;;;;;;;1.70;1.60;;;19.40;99.90;;;;;;5026224;28;20225;-65
2022/10/07 10:09:26;;;;;;;2.63;1.40;;;19.60;99.90;;;;;;5019979;28;20202;-65
2022/10/07 10:12:06;;;;;;;1.33;1.23;;;19.70;99.90;;;;;;5020874;28;20205;-66
2022/10/07 10:14:42;;;;;;;1.63;1.47;;;19.80;99.90;;;;;;5021805;28;20208;-66
2022/10/07 10:17:21;;;;;;;1.40;1.30;;;20.00;99.90;;;;;;5028479;28;20220;-67
2022/10/07 10:19:50;;;;;;;3.83;1.50;;;20.10;99.90;;;;;;5025057;28;20201;-67
2022/10/07 10:22:26;;;;;;;1.50;1.40;;;20.20;99.90;;;;;;5028829;28;20228;-66
2022/10/07 10:27:46;;;;;;;1.45;1.35;;;20.30;99.90;;;;;;5039684;28;20617;-66
2022/10/07 10:30:20;;;;;;;1.27;1.25;;;20.20;99.90;;;;;;5024398;28;20266;-66
2022/10/07 10:33:15;;;;;;;1.63;1.50;;;20.20;99.90;;;;;;5031367;28;20313;-65
2022/10/07 10:35:53;;;;;;;1.60;1.50;;;20.20;99.90;;;;;;5029635;28;20960;-66
2022/10/07 10:38:31;;;;;;;1.30;1.30;;;20.40;99.90;;;;;;5030074;28;20259;-67
2022/10/07 10:41:06;;;;;;;1.73;1.50;;;20.60;99.90;;;;;;5023107;28;20298;-65
2022/10/07 10:43:47;;;;;;;1.48;1.38;;;20.70;99.90;;;;;;5031017;28;20207;-67
2022/10/07 10:46:30;;;;;;;1.33;1.23;;;20.80;99.90;;;;;;5025418;28;20231;-66
2022/10/07 10:49:09;;;;;;;1.40;1.30;;;20.60;99.90;;;;;;5014140;28;20197;-66
2022/10/07 10:51:52;;;;;;;1.13;1.10;;;20.70;99.90;;;;;;5015208;28;20264;-66
2022/10/07 10:54:29;;;;;;;1.50;1.40;;;20.80;99.90;;;;;;5021633;28;20197;-65
2022/10/07 10:57:02;;;;;;;1.27;1.20;;;20.80;99.90;;;;;;5017792;28;20252;-64
2022/10/07 11:00:04;;;;;;;1.30;1.23;;;20.80;99.90;;;;;;5017023;28;20211;-67
2022/10/07 11:02:58;;;;;;;1.70;1.60;;;21.00;99.90;;;;;;5036001;28;20561;-65
2022/10/07 11:05:26;;;;;;;1.30;1.20;;;20.90;99.90;;;;;;5044038;28;20577;-67
2022/10/07 11:07:59;;;;;;;1.40;1.30;;;21.10;99.90;;;;;;5042702;28;21462;-67
2022/10/07 11:10:28;;;;;;;1.00;1.00;;;21.10;99.90;;;;;;5043987;28;20238;-67
2022/10/07 11:12:58;;;;;;;1.70;1.60;;;21.20;99.90;;;;;;5043396;28;20227;-65
2022/10/07 11:15:29;;;;;;;1.70;1.40;;;21.40;99.90;;;;;;5045501;28;20210;-67
2022/10/07 11:18:01;;;;;;;1.40;1.30;;;21.30;99.90;;;;;;5036737;28;20228;-66
2022/10/07 11:20:30;;;;;;;1.30;1.20;;;21.40;99.90;;;;;;5046569;28;20206;-65
2022/10/07 11:23:03;;;;;;;1.30;1.20;;;21.40;99.90;;;;;;5045465;28;20196;-66
2022/10/07 11:25:36;;;;;;;1.52;1.33;;;21.50;99.90;;;;;;5035993;28;20340;-65
2022/10/07 11:28:14;;;;;;;1.20;1.15;;;21.60;99.90;;;;;;5042459;28;20571;-66
2022/10/07 11:30:50;;;;;;;1.10;1.07;;;21.70;99.90;;;;;;5037542;28;20200;-65
2022/10/07 11:33:23;;;;;;;1.10;1.10;;;21.60;99.90;;;;;;5034506;28;20220;-66
2022/10/07 11:35:54;;;;;;;1.07;1.00;;;21.70;99.90;;;;;;5040891;28;20318;-67
2022/10/07 11:38:27;;;;;;;1.00;1.00;;;21.70;99.90;;;;;;5036298;28;20209;-66
2022/10/07 11:40:57;;;;;;;1.33;1.27;;;21.80;99.90;;;;;;5043330;28;20200;-66
2022/10/07 11:43:28;;;;;;;1.40;1.30;;;21.90;99.90;;;;;;5035094;28;20203;-65
2022/10/07 11:45:59;;;;;;;1.10;1.10;;;22.00;99.90;;;;;;5028106;28;20229;-65
2022/10/07 11:48:31;;;;;;;1.40;1.30;;;22.00;99.90;;;;;;5043328;28;20212;-67
2022/10/07 11:51:02;;;;;;;1.57;1.47;;;21.90;99.90;;;;;;5052814;28;20207;-65
2022/10/07 11:53:34;;;;;;;1.30;1.20;;;21.90;99.90;;;;;;5054157;28;20216;-64
2022/10/07 11:56:04;;;;;;;1.10;1.10;;;21.70;99.90;;;;;;5056830;28;20237;-67
2022/10/07 11:58:35;;;;;;;1.53;1.40;;;21.80;99.90;;;;;;5046020;28;20215;-64
2022/10/07 12:01:31;;;;;;;1.40;1.30;;;21.80;99.90;;;;;;5039123;28;20223;-65
2022/10/07 12:04:32;;;;;;;1.73;1.50;;;21.90;99.90;;;;;;5035800;28;20296;-66
2022/10/07 12:07:35;;;;;;;1.27;1.17;;;22.00;99.90;;;;;;5024086;28;20237;-65
2022/10/07 12:10:20;;;;;;;1.30;1.20;;;21.80;99.90;;;;;;5034567;28;20200;-66
2022/10/07 12:12:50;;;;;;;1.27;1.20;;;21.80;99.90;;;;;;5033669;28;20224;-65
2022/10/07 12:15:43;;;;;;;1.42;1.30;;;21.90;99.90;;;;;;5030746;28;20215;-65
2022/10/07 12:18:29;;;;;;;1.10;1.10;;;22.00;99.90;;;;;;5026650;28;20227;-65
2022/10/07 12:21:05;;;;;;;1.67;1.58;;;22.10;99.90;;;;;;5029061;28;20664;-66
2022/10/07 12:23:48;;;;;;;1.47;1.37;;;22.20;99.90;;;;;;5039960;28;20200;-64
2022/10/07 12:26:50;;;;;;;1.30;1.20;;;22.20;99.90;;;;;;5035831;28;20286;-67
2022/10/07 12:29:57;;;;;;;1.00;1.00;;;22.30;99.90;;;;;;5029480;28;20210;-64
2022/10/07 12:33:01;;;;;;;1.40;1.30;;;22.40;99.90;;;;;;5021867;28;20201;-65
2022/10/07 12:35:49;;;;;;;1.55;1.45;;;22.30;99.90;;;;;;5035536;28;20306;-64
2022/10/07 12:38:25;;;;;;;1.30;1.20;;;22.30;99.90;;;;;;5038744;28;20722;-65
2022/10/07 12:41:03;;;;;;;1.45;1.35;;;22.30;99.90;;;;;;5041096;28;20208;-65
2022/10/07 12:43:46;;;;;;;1.75;1.52;;;22.10;99.90;;;;;;5041581;28;20202;-65
2022/10/07 12:46:17;;;;;;;1.10;1.10;;;21.90;99.90;;;;;;5043584;28;20228;-66
2022/10/07 12:48:49;;;;;;;1.48;1.38;;;21.80;99.90;;;;;;5051596;28;20200;-65
2022/10/07 12:51:21;;;;;;;2.45;1.30;;;21.70;99.90;;;;;;5037528;28;20204;-65
2022/10/07 12:53:50;;;;;;;1.25;1.20;;;21.70;99.90;;;;;;5049520;28;20260;-65
2022/10/07 12:56:21;;;;;;;1.13;1.13;;;21.70;99.90;;;;;;5040243;28;20220;-65
2022/10/07 13:02:40;;;;;;;1.20;1.20;;;21.60;99.90;;;;;;5042360;28;20253;-65
2022/10/07 13:05:39;;;;;;;1.27;1.20;;;21.60;99.90;;;;;;5035742;28;20235;-66
2022/10/07 13:08:39;;;;;;;2.23;1.30;;;21.80;99.90;;;;;;5033355;28;20201;-65
2022/10/07 13:11:32;;;;;;;1.33;1.23;;;21.90;99.90;;;;;;5048444;28;20570;-66
2022/10/07 13:14:05;;;;;;;1.37;1.23;;;22.20;99.90;;;;;;5043551;28;20235;-64
2022/10/07 13:16:37;;;;;;;1.50;1.40;;;22.30;99.90;;;;;;5033173;28;20220;-65
2022/10/07 13:19:10;;;;;;;1.27;1.20;;;22.40;99.90;;;;;;5038062;28;20215;-65
2022/10/07 13:21:41;;;;;;;1.30;1.30;;;22.50;99.90;;;;;;5046513;28;20204;-65
2022/10/07 13:24:17;;;;;;;1.30;1.20;;;22.60;99.90;;;;;;5047558;28;20203;-65
2022/10/07 13:26:45;;;;;;;1.55;1.45;;;22.70;99.90;;;;;;5046922;28;20586;-65
2022/10/07 13:29:22;;;;;;;1.10;1.10;;;22.60;99.90;;;;;;5040465;28;20196;-65
2022/10/07 13:32:03;;;;;;;1.27;1.17;;;22.70;99.90;;;;;;5038760;28;20208;-66
2022/10/07 13:34:30;;;;;;;1.15;1.08;;;22.70;99.90;;;;;;5047366;28;20227;-65